Time;durP1;ratioP1;P1;durP2;ratioP2;P2;SDS_P1;SDS_P2;PMS_P1;PMS_P2;Temp;Humidity;BMP_temperature;BMP_pressure;BME280_temperature;BME280_humidity;BME280_pressure;Samples;Min_cycle;Max_cycle;Signal;HPM_P1;HPM_P2
2021/11/18 00:06:41;;;;;;;18.50;13.00;;;;;;;4.25;82.25;99872.72;433174;1312;142445;-62
2021/11/18 00:16:47;;;;;;;15.90;13.20;;;;;;;4.21;82.67;99861.40;432993;1313;141719;-61
2021/11/18 00:26:55;;;;;;;16.00;12.40;;;;;;;4.19;82.61;99864.41;431469;1311;264287;-61
2021/11/18 00:37:01;;;;;;;17.60;13.00;;;;;;;4.18;82.84;99867.36;430163;1312;142640;-62
2021/11/18 00:47:08;;;;;;;18.50;15.00;;;;;;;4.19;82.84;99872.73;428206;1311;142068;-61
2021/11/18 00:57:14;;;;;;;19.40;14.40;;;;;;;4.19;83.28;99878.09;424641;1312;143172;-62
2021/11/18 01:07:20;;;;;;;17.40;13.60;;;;;;;4.21;83.21;99874.40;434519;1312;144384;-62
2021/11/18 01:17:27;;;;;;;17.50;13.50;;;;;;;4.21;83.26;99881.31;432486;1312;142797;-62
2021/11/18 01:27:34;;;;;;;19.80;14.20;;;;;;;4.23;83.56;99891.67;418205;1311;142335;-65
2021/11/18 01:37:40;;;;;;;16.30;13.70;;;;;;;4.18;83.89;99893.55;426251;1312;141788;-62
2021/11/18 01:47:48;;;;;;;17.70;13.10;;;;;;;4.13;84.14;99892.33;431149;1308;142439;-63
2021/11/18 01:57:55;;;;;;;17.60;14.10;;;;;;;4.07;84.42;99900.65;434404;1314;142093;-65
2021/11/18 02:08:02;;;;;;;21.50;13.80;;;;;;;4.11;84.84;99913.70;434653;1309;141964;-62
2021/11/18 02:18:16;;;;;;;18.40;12.20;;;;;;;4.18;84.63;99918.66;434166;1311;141427;-62
2021/11/18 02:28:24;;;;;;;16.90;11.80;;;;;;;4.21;85.13;99919.98;434578;1312;141722;-62
2021/11/18 02:38:30;;;;;;;15.20;11.90;;;;;;;4.15;85.17;99916.15;430436;1318;142541;-61
2021/11/18 02:48:37;;;;;;;20.50;14.50;;;;;;;4.10;85.19;99916.52;433406;1312;141598;-62
2021/11/18 02:58:44;;;;;;;19.10;15.20;;;;;;;4.11;85.62;99929.84;433417;1312;142512;-61
2021/11/18 03:08:50;;;;;;;21.70;16.50;;;;;;;4.12;85.60;99938.29;433913;1311;142391;-61
2021/11/18 03:18:57;;;;;;;22.50;17.20;;;;;;;4.15;85.81;99941.66;434597;1312;141573;-63
2021/11/18 03:29:04;;;;;;;26.70;17.40;;;;;;;4.21;85.57;99942.33;431227;1312;143415;-62
2021/11/18 03:39:12;;;;;;;31.70;19.40;;;;;;;4.24;85.68;99944.67;426158;1314;142686;-62
2021/11/18 03:49:19;;;;;;;25.40;18.30;;;;;;;4.26;85.80;99950.48;431866;1314;141626;-62
2021/11/18 03:59:28;;;;;;;28.40;20.20;;;;;;;4.26;85.46;99952.73;434520;1313;142227;-63
2021/11/18 04:09:34;;;;;;;25.20;19.90;;;;;;;4.28;85.38;99954.39;432107;1308;142079;-62
2021/11/18 04:19:40;;;;;;;27.50;18.70;;;;;;;4.27;85.59;99950.80;427934;1313;142279;-62
2021/11/18 04:29:47;;;;;;;23.90;15.60;;;;;;;4.26;85.65;99957.24;430037;1313;142174;-61
2021/11/18 04:39:53;;;;;;;21.90;15.70;;;;;;;4.27;85.53;99961.38;434628;1313;141637;-62
2021/11/18 04:49:59;;;;;;;20.20;15.50;;;;;;;4.30;85.49;99964.92;433248;1314;142506;-62
2021/11/18 05:00:13;;;;;;;15.40;12.20;;;;;;;4.31;85.35;99972.84;431879;1314;142028;-62
2021/11/18 05:10:21;;;;;;;16.40;12.10;;;;;;;4.31;85.22;99978.39;434433;1313;142074;-62
2021/11/18 05:20:27;;;;;;;19.40;12.50;;;;;;;4.32;85.16;99981.48;434314;1313;142114;-62
2021/11/18 05:30:35;;;;;;;15.90;11.10;;;;;;;4.35;84.79;99984.69;430917;1312;141897;-62
2021/11/18 05:40:44;;;;;;;17.20;13.20;;;;;;;4.41;84.63;99989.19;434603;1308;142768;-63
2021/11/18 05:50:52;;;;;;;14.80;10.50;;;;;;;4.42;84.31;99990.88;433845;1314;142489;-63
2021/11/18 06:01:00;;;;;;;15.70;11.70;;;;;;;4.41;84.49;99999.41;434096;1311;141926;-63
2021/11/18 06:11:07;;;;;;;16.70;10.60;;;;;;;4.45;84.39;100003.77;423285;1313;141816;-61
2021/11/18 06:21:14;;;;;;;14.00;10.20;;;;;;;4.50;84.26;100007.45;433771;1313;142999;-61
2021/11/18 06:31:20;;;;;;;14.40;11.60;;;;;;;4.50;84.19;100017.84;428181;1313;142973;-62
2021/11/18 06:41:29;;;;;;;17.20;10.90;;;;;;;4.53;84.22;100013.25;434508;1311;142928;-62
2021/11/18 06:51:37;;;;;;;15.50;11.20;;;;;;;4.55;84.24;100034.14;433349;1310;143101;-63
2021/11/18 07:01:45;;;;;;;17.00;10.30;;;;;;;4.64;84.37;100040.45;434400;1313;141789;-63
2021/11/18 07:11:51;;;;;;;16.10;12.90;;;;;;;4.74;84.04;100043.42;433084;1313;143406;-61
2021/11/18 07:21:58;;;;;;;14.00;10.80;;;;;;;4.80;84.04;100040.11;431743;1312;143353;-62
2021/11/18 07:32:06;;;;;;;15.40;12.60;;;;;;;4.87;83.96;100047.87;419401;1313;142145;-62
2021/11/18 07:42:12;;;;;;;17.90;13.20;;;;;;;4.99;83.68;100045.23;432294;1313;142300;-63
2021/11/18 07:52:18;;;;;;;18.60;11.90;;;;;;;5.05;83.54;100048.67;423863;1313;142705;-61
2021/11/18 08:02:24;;;;;;;14.70;11.00;;;;;;;5.26;83.27;100051.60;433067;1313;142530;-61
2021/11/18 08:12:33;;;;;;;18.50;13.30;;;;;;;5.42;82.99;100068.21;432268;1311;142548;-61
2021/11/18 08:22:40;;;;;;;20.10;11.60;;;;;;;5.51;82.66;100079.56;434266;1312;301377;-61
2021/11/18 08:32:47;;;;;;;13.20;10.10;;;;;;;5.60;82.37;100087.40;433447;1309;142615;-70
2021/11/18 08:42:54;;;;;;;15.60;10.90;;;;;;;5.71;82.17;100098.99;429472;1313;142338;-65
2021/11/18 08:53:00;;;;;;;16.10;10.60;;;;;;;5.78;81.67;100104.33;433662;1313;141652;-68
2021/11/18 09:03:07;;;;;;;15.30;11.30;;;;;;;5.68;81.42;100113.88;423104;1312;141361;-66
2021/11/18 09:13:14;;;;;;;21.00;12.70;;;;;;;5.58;81.13;100114.55;418247;1312;141373;-72
2021/11/18 09:23:24;;;;;;;15.00;10.90;;;;;;;5.44;81.15;100128.77;427415;1312;141335;-62
2021/11/18 09:33:31;;;;;;;13.80;9.60;;;;;;;5.44;81.13;100124.08;433720;1312;143091;-64
2021/11/18 09:44:18;;;;;;;13.70;9.30;;;;;;;5.61;80.88;100120.04;432913;1312;141929;-63
2021/11/18 09:54:38;;;;;;;13.90;9.50;;;;;;;5.71;80.64;100110.80;433826;1313;142165;-63
2021/11/18 10:04:50;;;;;;;12.50;8.90;;;;;;;5.75;80.41;100097.67;434705;1312;142842;-63
2021/11/18 10:15:02;;;;;;;13.40;9.80;;;;;;;5.89;80.26;100107.91;424916;1311;142562;-62
2021/11/18 10:25:12;;;;;;;15.50;8.90;;;;;;;5.93;79.88;100107.10;426904;1312;142601;-63
2021/11/18 10:35:27;;;;;;;12.00;8.30;;;;;;;5.96;79.59;100100.03;433484;1311;141434;-63
2021/11/18 10:45:39;;;;;;;13.50;7.30;;;;;;;6.24;79.21;100098.34;432475;1312;142250;-63
2021/11/18 10:55:48;;;;;;;11.10;7.00;;;;;;;6.66;78.67;100093.77;424663;1310;141296;-63
2021/11/18 11:16:39;;;;;;;13.70;7.20;;;;;;;6.67;76.97;100106.09;417587;1355;600329;-64
2021/11/18 11:27:13;;;;;;;11.60;5.90;;;;;;;6.60;76.68;100107.23;420156;1320;141181;-64
2021/11/18 11:37:37;;;;;;;14.40;5.20;;;;;;;6.83;76.01;100101.11;432525;1317;140905;-65
2021/11/18 11:48:04;;;;;;;19.90;7.20;;;;;;;6.93;75.51;100114.63;428371;1319;141086;-64
2021/11/18 11:58:17;;;;;;;11.40;7.00;;;;;;;6.78;74.97;100097.80;423330;1319;140256;-64
2021/11/18 12:08:30;;;;;;;9.30;6.30;;;;;;;6.74;75.21;100091.53;428912;1319;140685;-63
2021/11/18 12:18:45;;;;;;;13.80;7.00;;;;;;;6.63;75.58;100085.38;419890;1317;140625;-63
2021/11/18 12:29:06;;;;;;;18.70;8.70;;;;;;;6.84;75.56;100070.94;429105;1319;140589;-63
2021/11/18 12:39:45;;;;;;;13.30;9.10;;;;;;;6.91;75.39;100069.10;428836;1319;141266;-63
2021/11/18 12:50:27;;;;;;;11.50;8.10;;;;;;;6.90;75.50;100071.77;429213;1319;145297;-64
2021/11/18 13:00:43;;;;;;;13.80;8.20;;;;;;;6.86;75.62;100042.14;432448;1319;142124;-64
2021/11/18 13:10:52;;;;;;;12.10;8.00;;;;;;;6.68;75.45;100030.00;431796;1320;141496;-64
2021/11/18 13:21:03;;;;;;;20.30;8.60;;;;;;;6.55;75.65;100036.10;418770;1319;141245;-63
2021/11/18 13:31:33;;;;;;;10.90;7.20;;;;;;;6.46;75.82;100033.14;433100;1319;141734;-64
2021/11/18 13:41:43;;;;;;;12.40;6.90;;;;;;;6.41;76.00;100026.20;430935;1316;143010;-65
2021/11/18 13:51:57;;;;;;;12.80;7.60;;;;;;;6.41;76.27;100025.86;433130;1319;142268;-64
2021/11/18 14:02:08;;;;;;;13.20;7.80;;;;;;;6.37;76.34;100033.68;432169;1320;141590;-64
2021/11/18 14:12:31;;;;;;;15.50;8.10;;;;;;;6.39;76.59;100055.85;430136;1319;141923;-65
2021/11/18 14:22:38;;;;;;;18.70;10.30;;;;;;;6.38;76.75;100053.83;428672;1322;141091;-63
2021/11/18 14:33:16;;;;;;;15.00;8.30;;;;;;;6.39;76.86;100037.95;429737;1320;144043;-64
2021/11/18 14:43:25;;;;;;;14.20;9.60;;;;;;;6.33;76.89;100046.69;425654;1317;143904;-63
2021/11/18 14:53:34;;;;;;;13.00;9.00;;;;;;;6.19;77.07;100050.20;432965;1319;141641;-64
2021/11/18 15:03:47;;;;;;;13.00;9.00;;;;;;;6.08;77.32;100070.61;418775;1317;10002841;-64
2021/11/18 15:13:54;;;;;;;15.20;10.50;;;;;;;6.20;77.33;100056.74;431942;1319;142600;-64
2021/11/18 15:24:01;;;;;;;10.40;8.30;;;;;;;6.35;77.02;100054.47;432457;1315;141563;-64
2021/11/18 15:34:07;;;;;;;10.50;8.00;;;;;;;6.27;77.26;100063.08;425534;1316;141196;-64
2021/11/18 15:44:15;;;;;;;15.40;8.80;;;;;;;6.25;77.37;100052.91;418624;1319;142443;-64
2021/11/18 15:54:22;;;;;;;14.50;9.70;;;;;;;6.22;77.54;100036.33;416980;1319;141540;-64
2021/11/18 16:04:31;;;;;;;17.80;9.10;;;;;;;6.22;77.69;100038.63;424461;1319;141565;-64
2021/11/18 16:14:41;;;;;;;15.50;8.10;;;;;;;6.24;77.78;100042.52;429884;1319;140676;-64
2021/11/18 16:24:47;;;;;;;16.30;8.50;;;;;;;6.27;77.89;100049.55;432364;1319;142574;-62
2021/11/18 16:34:53;;;;;;;20.30;9.60;;;;;;;6.33;78.01;100052.08;433248;1311;141924;-63
2021/11/18 16:45:01;;;;;;;14.30;7.60;;;;;;;6.37;78.03;100059.94;426246;1319;142342;-64
2021/11/18 16:55:11;;;;;;;14.30;8.30;;;;;;;6.40;78.01;100078.93;433024;1317;141455;-64
2021/11/18 17:05:17;;;;;;;12.20;8.50;;;;;;;6.40;78.05;100057.20;424443;1319;145296;-65
2021/11/18 17:15:26;;;;;;;17.60;11.10;;;;;;;6.40;78.10;100049.04;415473;1319;142265;-63
2021/11/18 17:25:35;;;;;;;12.50;9.40;;;;;;;6.37;78.22;100053.88;419124;1316;143208;-62
2021/11/18 17:35:41;;;;;;;15.50;8.20;;;;;;;6.38;78.31;100056.79;423439;1319;142524;-64
2021/11/18 17:45:51;;;;;;;10.40;9.00;;;;;;;6.41;78.44;100051.79;415528;1319;142105;-60
2021/11/18 17:55:58;;;;;;;17.40;9.00;;;;;;;6.43;78.53;100037.27;429992;1316;141857;-58
2021/11/18 18:06:05;;;;;;;17.60;10.60;;;;;;;6.41;78.69;100013.00;431641;1314;142178;-59
2021/11/18 18:16:12;;;;;;;16.10;11.30;;;;;;;6.42;78.68;100010.88;433812;1315;141862;-59
2021/11/18 18:26:19;;;;;;;15.50;11.10;;;;;;;6.45;78.84;99988.49;425722;1315;140900;-59
2021/11/18 18:36:30;;;;;;;17.90;11.00;;;;;;;6.41;78.88;99974.38;424363;1315;143174;-61
2021/11/18 18:46:40;;;;;;;12.00;9.30;;;;;;;6.38;79.22;99966.54;433698;1314;141819;-60
2021/11/18 18:56:47;;;;;;;17.90;12.30;;;;;;;6.38;79.35;99955.94;430021;1311;142891;-61
2021/11/18 19:06:55;;;;;;;16.70;9.50;;;;;;;6.31;79.49;99936.00;430498;1310;142096;-63
2021/11/18 19:17:01;;;;;;;;;;;;;;;6.28;79.86;99942.58;433947;1309;141508;-67
2021/11/18 19:27:14;;;;;;;19.90;8.50;;;;;;;6.28;79.87;99940.85;429533;1314;136343;-66
2021/11/18 19:37:35;;;;;;;14.20;6.80;;;;;;;6.30;80.01;99939.19;420701;1315;140673;-66
2021/11/18 19:47:42;;;;;;;13.10;6.70;;;;;;;6.32;80.18;99940.84;419730;1314;142872;-69
2021/11/18 19:57:49;;;;;;;12.50;7.70;;;;;;;6.31;80.20;99947.66;421429;1309;140775;-60
2021/11/18 20:07:56;;;;;;;16.30;7.70;;;;;;;6.31;80.23;99944.69;430260;1311;196163;-61
2021/11/18 20:18:03;;;;;;;14.60;7.10;;;;;;;6.33;80.07;99935.95;424818;1309;141712;-60
2021/11/18 20:28:12;;;;;;;9.60;6.70;;;;;;;6.34;80.22;99921.12;422466;1309;142665;-60
2021/11/18 20:38:19;;;;;;;14.50;8.70;;;;;;;6.28;80.43;99912.13;434914;1312;140722;-61
2021/11/18 20:48:26;;;;;;;18.40;8.80;;;;;;;6.23;80.63;99898.08;432941;1312;141786;-61
2021/11/18 20:58:35;;;;;;;18.70;8.40;;;;;;;6.18;80.72;99877.79;423217;1309;141643;-61
2021/11/18 21:08:41;;;;;;;13.30;8.10;;;;;;;6.13;80.94;99862.70;431886;1312;143610;-60
2021/11/18 21:18:48;;;;;;;15.70;9.10;;;;;;;6.13;80.83;99853.33;428761;1309;142386;-60
2021/11/18 21:28:55;;;;;;;12.50;7.70;;;;;;;6.16;80.76;99847.09;435388;1309;143051;-62
2021/11/18 21:39:08;;;;;;;;;;;;;;;6.18;80.79;99843.02;419480;1309;141868;-60
2021/11/18 21:49:19;;;;;;;13.20;8.10;;;;;;;6.12;80.87;99825.86;419091;1312;132078;-60
2021/11/18 21:59:25;;;;;;;13.20;8.90;;;;;;;6.07;81.03;99815.51;430852;1312;140779;-59
2021/11/18 22:09:33;;;;;;;15.20;8.60;;;;;;;6.01;81.38;99809.10;418709;1312;141560;-60
2021/11/18 22:19:40;;;;;;;16.50;8.30;;;;;;;5.98;81.55;99793.05;419657;1311;140951;-60
2021/11/18 22:29:47;;;;;;;14.70;6.60;;;;;;;5.98;81.55;99784.87;432974;1312;142026;-67
2021/11/18 22:39:56;;;;;;;10.20;6.50;;;;;;;6.03;81.51;99772.90;434997;1312;143336;-64
2021/11/18 22:50:02;;;;;;;14.80;6.60;;;;;;;6.07;81.50;99751.54;435116;1312;141727;-61
2021/11/18 23:00:14;;;;;;;13.00;8.30;;;;;;;6.08;81.47;99749.59;434787;1310;141300;-67
2021/11/18 23:10:22;;;;;;;10.50;5.90;;;;;;;6.05;81.62;99746.05;433020;1310;141860;-62
2021/11/18 23:20:29;;;;;;;;;;;;;;;6.06;81.52;99720.83;435698;1306;140962;-62
2021/11/18 23:30:38;;;;;;;12.40;6.20;;;;;;;6.12;81.29;99716.41;434603;1312;129547;-63
2021/11/18 23:40:45;;;;;;;9.60;5.40;;;;;;;6.22;80.96;99718.41;434948;1310;142316;-62
2021/11/18 23:50:52;;;;;;;7.60;6.30;;;;;;;6.29;80.76;99714.23;422345;1312;141150;-64
